Time;durP1;ratioP1;P1;durP2;ratioP2;P2;SDS_P1;SDS_P2;PMS_P1;PMS_P2;Temp;Humidity;BMP_temperature;BMP_pressure;BME280_temperature;BME280_humidity;BME280_pressure;Samples;Min_cycle;Max_cycle;Signal;HPM_P1;HPM_P2
2022/01/25 00:10:03;;;;;;;2.10;1.60;;;;;;;;;;5028786;28;20212;-72
2022/01/25 00:25:44;;;;;;;1.83;1.30;;;;;;;;;;5028936;28;20200;-72
2022/01/25 00:28:43;;;;;;;2.27;1.43;;;;;;;;;;5025474;28;20212;-71
2022/01/25 00:31:30;;;;;;;1.87;1.50;;;;;;;;;;5028079;28;20209;-71
2022/01/25 00:34:17;;;;;;;2.43;1.60;;;;;;;;;;5026754;28;20578;-72
2022/01/25 00:37:04;;;;;;;2.23;1.50;;;;;;;;;;5029372;28;20553;-72
2022/01/25 00:39:51;;;;;;;1.83;1.40;;;;;;;;;;5027435;28;20742;-72
2022/01/25 00:42:39;;;;;;;1.53;1.20;;;;;;;;;;5025650;28;20724;-72
2022/01/25 00:45:28;;;;;;;2.40;1.43;;;;;;;;;;5028780;28;20363;-72
2022/01/25 00:48:19;;;;;;;3.17;1.60;;;;;;;;;;5031291;28;20250;-72
2022/01/25 00:51:19;;;;;;;3.50;1.30;;;;;;;;;;5027031;28;20217;-71
2022/01/25 00:54:11;;;;;;;2.27;1.60;;;;;;;;;;5028815;28;20210;-72
2022/01/25 00:56:59;;;;;;;2.00;1.30;;;;;;;;;;5028020;28;20387;-71
2022/01/25 00:59:48;;;;;;;3.27;1.63;;;;;;;;;;5028793;28;20217;-71
2022/01/25 01:02:35;;;;;;;1.93;1.40;;;;;;;;;;5029499;28;20300;-72
2022/01/25 01:05:22;;;;;;;1.27;1.17;;;;;;;;;;5029210;28;20330;-72
2022/01/25 01:08:09;;;;;;;1.43;0.97;;;;;;;;;;5029685;28;20215;-71
2022/01/25 01:10:57;;;;;;;1.80;1.30;;;;;;;;;;5027309;28;20299;-72
2022/01/25 01:13:56;;;;;;;2.50;1.70;;;;;;;;;;5026656;28;20219;-71
2022/01/25 01:17:06;;;;;;;1.93;1.67;;;;;;;;;;5025972;28;20264;-72
2022/01/25 01:29:19;;;;;;;2.33;1.40;;;;;;;;;;5004668;28;20216;-72
2022/01/25 01:32:24;;;;;;;2.10;1.50;;;;;;;;;;5030550;28;20204;-71
2022/01/25 01:38:27;;;;;;;3.50;1.70;;;;;;;;;;5031387;28;20241;-72
2022/01/25 01:44:26;;;;;;;2.93;1.50;;;;;;;;;;5027519;28;20263;-72
2022/01/25 01:47:23;;;;;;;2.27;1.50;;;;;;;;;;5034446;28;20298;-72
2022/01/25 01:50:14;;;;;;;1.60;1.10;;;;;;;;;;5032523;28;20212;-71
2022/01/25 01:53:03;;;;;;;1.90;1.17;;;;;;;;;;5033878;28;20215;-71
2022/01/25 01:55:50;;;;;;;1.90;1.40;;;;;;;;;;5030804;28;20228;-71
2022/01/25 01:58:38;;;;;;;2.70;1.30;;;;;;;;;;5033754;28;20350;-72
2022/01/25 02:01:28;;;;;;;2.73;1.63;;;;;;;;;;5033582;28;20247;-71
2022/01/25 02:04:17;;;;;;;2.13;1.77;;;;;;;;;;5029489;28;20309;-72
2022/01/25 02:07:05;;;;;;;1.73;1.30;;;;;;;;;;5030510;28;20249;-72
2022/01/25 02:09:52;;;;;;;2.47;1.57;;;;;;;;;;5034085;28;20235;-71
2022/01/25 02:12:40;;;;;;;2.33;1.90;;;;;;;;;;5033948;28;20693;-72
2022/01/25 02:15:27;;;;;;;2.10;1.50;;;;;;;;;;5032281;28;20221;-72
2022/01/25 02:24:32;;;;;;;2.67;1.30;;;;;;;;;;5030821;28;20213;-72
2022/01/25 02:27:20;;;;;;;3.07;1.50;;;;;;;;;;5032437;28;20304;-72
2022/01/25 02:30:07;;;;;;;1.97;1.57;;;;;;;;;;5033232;28;20267;-72
2022/01/25 02:32:54;;;;;;;2.33;1.70;;;;;;;;;;5030646;28;20653;-72
2022/01/25 02:35:42;;;;;;;2.00;1.37;;;;;;;;;;5032409;28;20224;-72
2022/01/25 02:38:32;;;;;;;1.90;1.50;;;;;;;;;;5030006;28;20209;-71
2022/01/25 02:41:19;;;;;;;1.90;1.40;;;;;;;;;;5030767;28;20275;-72
2022/01/25 02:44:08;;;;;;;1.30;1.20;;;;;;;;;;5031898;28;20228;-72
2022/01/25 02:50:05;;;;;;;3.20;1.60;;;;;;;;;;5017224;28;20220;-72
2022/01/25 02:52:52;;;;;;;1.53;1.37;;;;;;;;;;5030998;28;20263;-72
2022/01/25 02:55:40;;;;;;;1.73;1.40;;;;;;;;;;5030712;28;20232;-72
2022/01/25 02:58:27;;;;;;;1.80;1.47;;;;;;;;;;5031843;28;20612;-72
2022/01/25 03:01:14;;;;;;;2.20;1.47;;;;;;;;;;5031388;28;20311;-72
2022/01/25 03:04:03;;;;;;;1.67;1.20;;;;;;;;;;5029132;28;20274;-72
2022/01/25 03:06:51;;;;;;;2.43;1.63;;;;;;;;;;5030957;28;20292;-72
2022/01/25 03:09:39;;;;;;;2.00;1.30;;;;;;;;;;5030090;28;20259;-72
2022/01/25 03:12:36;;;;;;;2.43;1.50;;;;;;;;;;5031625;28;20200;-71
2022/01/25 03:15:31;;;;;;;2.93;1.53;;;;;;;;;;5027611;28;20224;-72
2022/01/25 03:18:37;;;;;;;1.57;1.30;;;;;;;;;;5030775;28;20387;-72
2022/01/25 03:21:36;;;;;;;2.37;1.50;;;;;;;;;;5029162;28;20201;-72
2022/01/25 03:24:23;;;;;;;2.50;1.70;;;;;;;;;;5029495;28;20228;-72
2022/01/25 03:27:10;;;;;;;1.87;1.40;;;;;;;;;;5029912;28;20315;-72
2022/01/25 03:29:59;;;;;;;2.80;1.20;;;;;;;;;;5031522;28;20216;-72
2022/01/25 03:32:46;;;;;;;1.83;1.50;;;;;;;;;;5028837;28;20707;-72
2022/01/25 03:35:33;;;;;;;1.40;1.30;;;;;;;;;;5031002;28;20802;-72
2022/01/25 03:38:20;;;;;;;1.93;1.27;;;;;;;;;;5028910;28;20244;-72
2022/01/25 03:41:09;;;;;;;2.20;1.57;;;;;;;;;;5030299;28;20283;-72
2022/01/25 03:43:57;;;;;;;2.30;1.40;;;;;;;;;;5029649;28;20306;-72
2022/01/25 03:46:58;;;;;;;1.90;1.37;;;;;;;;;;5029393;28;20201;-72
2022/01/25 03:49:49;;;;;;;2.50;1.37;;;;;;;;;;5029109;28;20283;-72
2022/01/25 03:52:37;;;;;;;1.77;1.27;;;;;;;;;;5031742;28;20652;-72
2022/01/25 03:55:24;;;;;;;1.57;1.30;;;;;;;;;;5027840;28;20246;-72
2022/01/25 03:58:11;;;;;;;3.33;1.70;;;;;;;;;;5029937;28;20496;-72
2022/01/25 04:00:58;;;;;;;1.50;1.40;;;;;;;;;;5028605;28;20657;-72
2022/01/25 04:03:55;;;;;;;2.20;1.43;;;;;;;;;;5027748;28;20283;-72
2022/01/25 04:06:47;;;;;;;3.00;1.57;;;;;;;;;;5029593;28;20208;-72
2022/01/25 04:09:34;;;;;;;1.50;1.40;;;;;;;;;;5030832;28;20210;-72
2022/01/25 04:12:21;;;;;;;2.47;1.50;;;;;;;;;;5028810;28;20734;-72
2022/01/25 04:15:09;;;;;;;3.27;1.90;;;;;;;;;;5029133;28;20301;-72
2022/01/25 04:18:03;;;;;;;2.83;1.80;;;;;;;;;;5028995;28;20263;-72
2022/01/25 04:21:00;;;;;;;2.23;1.63;;;;;;;;;;5029687;28;20224;-72
2022/01/25 04:26:52;;;;;;;2.43;1.70;;;;;;;;;;5030951;28;20231;-72
2022/01/25 04:29:39;;;;;;;1.70;1.53;;;;;;;;;;5025255;28;20235;-72
2022/01/25 04:32:33;;;;;;;2.77;1.73;;;;;;;;;;5026710;28;20618;-71
2022/01/25 04:35:29;;;;;;;2.13;1.40;;;;;;;;;;5027551;28;20209;-73
2022/01/25 04:50:56;;;;;;;3.73;1.67;;;;;;;;;;5028517;28;20205;-72
2022/01/25 04:53:53;;;;;;;1.77;1.47;;;;;;;;;;5028569;28;20209;-72
2022/01/25 04:56:46;;;;;;;1.80;1.40;;;;;;;;;;5027346;28;20229;-71
2022/01/25 04:59:38;;;;;;;2.00;1.40;;;;;;;;;;5027931;28;20227;-72
2022/01/25 05:02:35;;;;;;;1.93;1.60;;;;;;;;;;5028941;28;20216;-72
2022/01/25 05:05:29;;;;;;;2.70;1.40;;;;;;;;;;5030056;28;20292;-72
2022/01/25 05:08:21;;;;;;;2.00;1.60;;;;;;;;;;5028419;28;20213;-72
2022/01/25 05:11:15;;;;;;;2.50;1.67;;;;;;;;;;5029415;28;20585;-72
2022/01/25 05:14:15;;;;;;;2.27;1.90;;;;;;;;;;5028038;28;20218;-72
2022/01/25 05:17:05;;;;;;;1.73;1.40;;;;;;;;;;5028688;28;20314;-72
2022/01/25 05:22:55;;;;;;;1.50;1.40;;;;;;;;;;5028353;28;20212;-71
2022/01/25 05:25:42;;;;;;;1.63;1.50;;;;;;;;;;5026507;28;20261;-72
2022/01/25 05:28:30;;;;;;;1.90;1.33;;;;;;;;;;5026546;28;20279;-72
2022/01/25 05:31:17;;;;;;;3.13;1.77;;;;;;;;;;5028167;28;20204;-72
2022/01/25 05:34:07;;;;;;;2.00;1.50;;;;;;;;;;5026932;28;20208;-72
2022/01/25 05:36:54;;;;;;;1.53;1.43;;;;;;;;;;5026039;28;20229;-73
2022/01/25 05:39:41;;;;;;;2.83;1.87;;;;;;;;;;5028862;28;20237;-72
2022/01/25 05:42:47;;;;;;;2.23;1.80;;;;;;;;;;5028218;28;20216;-72
2022/01/25 05:45:55;;;;;;;2.27;1.50;;;;;;;;;;5027071;28;20205;-72
2022/01/25 05:48:42;;;;;;;2.37;1.30;;;;;;;;;;5028546;28;20261;-72
2022/01/25 05:51:29;;;;;;;2.63;1.70;;;;;;;;;;5028122;28;20217;-71
2022/01/25 05:54:17;;;;;;;2.07;1.60;;;;;;;;;;5025530;28;20299;-72
2022/01/25 05:57:04;;;;;;;2.13;1.60;;;;;;;;;;5025379;28;20257;-72
2022/01/25 05:59:51;;;;;;;2.00;1.40;;;;;;;;;;5025327;28;20339;-72
2022/01/25 06:02:40;;;;;;;2.43;1.87;;;;;;;;;;5028435;28;20205;-72
2022/01/25 06:05:27;;;;;;;2.63;1.77;;;;;;;;;;5028294;28;20205;-72
2022/01/25 06:08:14;;;;;;;2.40;1.90;;;;;;;;;;5029139;28;20289;-72
2022/01/25 06:11:00;;;;;;;3.20;1.70;;;;;;;;;;5029691;28;20204;-72
2022/01/25 06:13:47;;;;;;;1.77;1.57;;;;;;;;;;5028672;28;20745;-72
2022/01/25 06:16:35;;;;;;;2.33;1.63;;;;;;;;;;5029795;28;20224;-72
2022/01/25 06:19:23;;;;;;;2.37;1.57;;;;;;;;;;5031777;28;20279;-72
2022/01/25 06:22:10;;;;;;;2.37;1.53;;;;;;;;;;5032432;28;20220;-72
2022/01/25 06:24:57;;;;;;;2.27;1.63;;;;;;;;;;5031376;28;20252;-71
2022/01/25 06:27:44;;;;;;;2.03;1.60;;;;;;;;;;5031235;28;20226;-72
2022/01/25 06:30:31;;;;;;;2.13;1.70;;;;;;;;;;5033345;28;20742;-72
2022/01/25 06:33:18;;;;;;;2.03;1.70;;;;;;;;;;5030094;28;20248;-72
2022/01/25 06:36:07;;;;;;;2.33;1.87;;;;;;;;;;5032041;28;20318;-72
2022/01/25 06:38:54;;;;;;;2.10;1.80;;;;;;;;;;5032293;28;20268;-72
2022/01/25 06:41:41;;;;;;;2.13;1.47;;;;;;;;;;5030835;28;20236;-72
2022/01/25 06:44:28;;;;;;;1.63;1.50;;;;;;;;;;5031373;28;20209;-71
2022/01/25 06:47:14;;;;;;;1.73;1.63;;;;;;;;;;5032888;28;20204;-72
2022/01/25 06:50:01;;;;;;;1.90;1.40;;;;;;;;;;5027979;28;20287;-72
2022/01/25 06:52:50;;;;;;;3.03;1.70;;;;;;;;;;5031680;28;20888;-72
2022/01/25 06:55:37;;;;;;;2.43;1.47;;;;;;;;;;5031301;28;20201;-72
2022/01/25 06:58:24;;;;;;;2.37;1.67;;;;;;;;;;5030197;28;20670;-72
2022/01/25 07:01:11;;;;;;;2.07;1.87;;;;;;;;;;5032146;28;20683;-72
2022/01/25 07:03:58;;;;;;;2.17;1.90;;;;;;;;;;5028949;28;20304;-72
2022/01/25 07:06:45;;;;;;;1.83;1.70;;;;;;;;;;5031630;28;20315;-71
2022/01/25 07:09:35;;;;;;;1.90;1.70;;;;;;;;;;5028793;28;20300;-72
2022/01/25 07:12:22;;;;;;;1.80;1.70;;;;;;;;;;5028618;28;20281;-72
2022/01/25 07:15:09;;;;;;;2.33;1.80;;;;;;;;;;5030069;28;20205;-72
2022/01/25 07:17:57;;;;;;;2.27;1.87;;;;;;;;;;5030504;28;20231;-72
2022/01/25 07:20:44;;;;;;;2.10;1.97;;;;;;;;;;5028605;28;20249;-72
2022/01/25 07:23:30;;;;;;;2.13;1.97;;;;;;;;;;5030804;28;20741;-72
2022/01/25 07:26:19;;;;;;;2.07;1.77;;;;;;;;;;5027187;28;20225;-72
2022/01/25 07:29:06;;;;;;;2.33;2.13;;;;;;;;;;5031089;28;20689;-72
2022/01/25 07:31:53;;;;;;;2.03;1.83;;;;;;;;;;5029860;28;20588;-72
2022/01/25 07:34:40;;;;;;;1.93;1.83;;;;;;;;;;5031817;28;20213;-72
2022/01/25 07:37:27;;;;;;;1.93;1.83;;;;;;;;;;5030814;28;20221;-71
2022/01/25 07:40:16;;;;;;;2.10;1.90;;;;;;;;;;5031462;28;20336;-72
2022/01/25 07:43:07;;;;;;;2.30;2.07;;;;;;;;;;5029420;28;20586;-71
2022/01/25 07:45:56;;;;;;;2.30;2.10;;;;;;;;;;5030909;28;20620;-72
2022/01/25 07:48:43;;;;;;;2.20;2.00;;;;;;;;;;5030006;28;20197;-72
2022/01/25 07:51:30;;;;;;;2.17;1.80;;;;;;;;;;5031475;28;20242;-72
2022/01/25 07:54:17;;;;;;;2.07;1.93;;;;;;;;;;5030820;28;20640;-72
2022/01/25 07:57:05;;;;;;;2.00;1.83;;;;;;;;;;5030610;28;20308;-72
2022/01/25 07:59:53;;;;;;;1.83;1.73;;;;;;;;;;5028506;28;20580;-72
2022/01/25 08:02:42;;;;;;;2.07;1.97;;;;;;;;;;5029059;28;20262;-72
2022/01/25 08:05:29;;;;;;;1.80;1.70;;;;;;;;;;5028870;28;20210;-71
2022/01/25 08:08:15;;;;;;;1.80;1.57;;;;;;;;;;5029699;28;20209;-72
2022/01/25 08:11:03;;;;;;;1.80;1.70;;;;;;;;;;5028914;28;20638;-72
2022/01/25 08:13:50;;;;;;;2.07;1.87;;;;;;;;;;5030733;28;20300;-71
2022/01/25 08:16:39;;;;;;;1.87;1.77;;;;;;;;;;5029124;28;20323;-72
2022/01/25 08:19:26;;;;;;;1.60;1.50;;;;;;;;;;5030481;28;20245;-72
2022/01/25 08:22:13;;;;;;;1.87;1.77;;;;;;;;;;5029613;28;20314;-71
2022/01/25 08:25:00;;;;;;;2.20;2.00;;;;;;;;;;5030125;28;20766;-71
2022/01/25 08:27:47;;;;;;;1.53;1.43;;;;;;;;;;5027730;28;20269;-72
2022/01/25 08:30:34;;;;;;;1.60;1.50;;;;;;;;;;5028905;28;20218;-72
2022/01/25 08:33:22;;;;;;;1.83;1.73;;;;;;;;;;5029564;28;20292;-73
2022/01/25 08:36:09;;;;;;;2.10;1.73;;;;;;;;;;5026038;28;20353;-71
2022/01/25 08:38:56;;;;;;;1.90;1.80;;;;;;;;;;5028089;28;20321;-72
2022/01/25 08:41:44;;;;;;;1.87;1.77;;;;;;;;;;5027140;28;20317;-72
2022/01/25 08:44:31;;;;;;;1.80;1.70;;;;;;;;;;5028824;28;20225;-72
2022/01/25 08:47:18;;;;;;;2.10;1.97;;;;;;;;;;5028872;28;20209;-72
2022/01/25 08:50:09;;;;;;;2.00;1.90;;;;;;;;;;5026818;28;20734;-71
2022/01/25 08:52:56;;;;;;;2.20;2.10;;;;;;;;;;5029360;28;20721;-71
2022/01/25 08:55:43;;;;;;;2.10;1.90;;;;;;;;;;5029912;28;20707;-72
2022/01/25 08:58:30;;;;;;;1.90;1.80;;;;;;;;;;5029734;28;20669;-72
2022/01/25 09:01:17;;;;;;;1.90;1.80;;;;;;;;;;5031103;28;20247;-72
2022/01/25 09:04:05;;;;;;;2.13;2.03;;;;;;;;;;5028979;28;20309;-72
2022/01/25 09:06:53;;;;;;;2.07;1.97;;;;;;;;;;5032201;28;20203;-72
2022/01/25 09:09:41;;;;;;;1.90;1.80;;;;;;;;;;5029326;28;20219;-72
2022/01/25 09:12:28;;;;;;;2.00;1.90;;;;;;;;;;5032895;28;20208;-71
2022/01/25 09:15:15;;;;;;;2.10;1.90;;;;;;;;;;5029824;28;20616;-72
2022/01/25 09:18:02;;;;;;;1.93;1.80;;;;;;;;;;5027484;28;20599;-72
2022/01/25 09:20:50;;;;;;;1.90;1.60;;;;;;;;;;5030061;28;20325;-72
2022/01/25 09:23:38;;;;;;;1.90;1.80;;;;;;;;;;5029728;28;20300;-72
2022/01/25 09:26:26;;;;;;;1.80;1.70;;;;;;;;;;5030034;28;20289;-72
2022/01/25 09:29:13;;;;;;;1.97;1.87;;;;;;;;;;5027550;28;20356;-72
2022/01/25 09:31:59;;;;;;;2.17;1.83;;;;;;;;;;5025145;28;20303;-72
2022/01/25 09:34:47;;;;;;;1.70;1.60;;;;;;;;;;5028251;28;20291;-72
2022/01/25 09:37:34;;;;;;;2.00;1.90;;;;;;;;;;5025337;28;20307;-73
2022/01/25 09:40:22;;;;;;;1.90;1.80;;;;;;;;;;5029066;28;20267;-72
2022/01/25 09:43:09;;;;;;;1.93;1.83;;;;;;;;;;5028485;28;20220;-72
2022/01/25 09:45:56;;;;;;;2.07;1.97;;;;;;;;;;5028339;28;20215;-72
2022/01/25 09:48:43;;;;;;;1.90;1.80;;;;;;;;;;5027095;28;20348;-72
2022/01/25 09:51:32;;;;;;;1.70;1.60;;;;;;;;;;5030340;28;20625;-72
2022/01/25 09:54:19;;;;;;;1.90;1.80;;;;;;;;;;5030492;28;20204;-72
2022/01/25 09:57:07;;;;;;;1.87;1.77;;;;;;;;;;5029187;28;20646;-71
2022/01/25 09:59:56;;;;;;;1.80;1.70;;;;;;;;;;5034435;28;20263;-72
2022/01/25 10:02:48;;;;;;;1.53;1.43;;;;;;;;;;5029158;28;20243;-71
2022/01/25 10:05:38;;;;;;;2.20;1.87;;;;;;;;;;5030327;28;20354;-72
2022/01/25 10:08:28;;;;;;;1.70;1.60;;;;;;;;;;5030855;28;20212;-72
2022/01/25 10:11:19;;;;;;;1.50;1.40;;;;;;;;;;5029326;28;20315;-72
2022/01/25 10:14:08;;;;;;;2.10;2.00;;;;;;;;;;5030989;28;20243;-72
2022/01/25 10:16:56;;;;;;;1.70;1.60;;;;;;;;;;5033461;28;20759;-72
2022/01/25 10:19:43;;;;;;;2.20;2.00;;;;;;;;;;5032633;28;20205;-72
2022/01/25 10:22:42;;;;;;;1.70;1.60;;;;;;;;;;5031811;28;20240;-72
2022/01/25 10:25:36;;;;;;;1.50;1.50;;;;;;;;;;5029789;28;20685;-72
2022/01/25 10:28:26;;;;;;;1.83;1.73;;;;;;;;;;5031808;28;20311;-72
2022/01/25 10:31:14;;;;;;;2.53;2.10;;;;;;;;;;5029002;28;20237;-69
2022/01/25 10:34:01;;;;;;;1.97;1.87;;;;;;;;;;5031210;28;20220;-72
2022/01/25 10:36:50;;;;;;;2.87;2.10;;;;;;;;;;5031406;28;20214;-71
2022/01/25 10:39:42;;;;;;;2.10;2.00;;;;;;;;;;5031198;28;20240;-72
2022/01/25 10:42:33;;;;;;;1.83;1.73;;;;;;;;;;5032786;28;20228;-71
2022/01/25 10:45:24;;;;;;;1.97;1.77;;;;;;;;;;5031701;28;20285;-71
2022/01/25 10:48:14;;;;;;;1.97;1.87;;;;;;;;;;5032181;28;20668;-72
2022/01/25 10:51:06;;;;;;;2.10;2.00;;;;;;;;;;5029983;28;20209;-72
2022/01/25 10:54:07;;;;;;;2.50;1.93;;;;;;;;;;5031687;28;20280;-72
2022/01/25 10:56:57;;;;;;;2.07;1.83;;;;;;;;;;5032410;28;20771;-72
2022/01/25 10:59:43;;;;;;;2.33;2.03;;;;;;;;;;5031325;28;20236;-72
2022/01/25 11:02:30;;;;;;;2.13;1.93;;;;;;;;;;5030277;28;20247;-72
2022/01/25 11:05:19;;;;;;;2.30;2.10;;;;;;;;;;5029390;28;20296;-71
2022/01/25 11:08:14;;;;;;;2.27;2.10;;;;;;;;;;5028757;28;20278;-71
2022/01/25 11:11:03;;;;;;;2.00;1.90;;;;;;;;;;5026616;28;20209;-72
2022/01/25 11:13:52;;;;;;;1.90;1.80;;;;;;;;;;5030748;28;20223;-71
2022/01/25 11:16:39;;;;;;;2.07;1.87;;;;;;;;;;5029909;28;20577;-72
2022/01/25 11:19:26;;;;;;;1.83;1.73;;;;;;;;;;5031218;28;20673;-72
2022/01/25 11:22:19;;;;;;;1.83;1.73;;;;;;;;;;5034027;28;20217;-72
2022/01/25 11:25:07;;;;;;;1.93;1.83;;;;;;;;;;5029237;28;20217;-72
2022/01/25 11:27:57;;;;;;;2.00;1.90;;;;;;;;;;5028966;28;20230;-72
2022/01/25 11:30:47;;;;;;;2.40;2.20;;;;;;;;;;5028389;28;20246;-72
2022/01/25 11:33:35;;;;;;;2.80;2.53;;;;;;;;;;5025312;28;20218;-71
2022/01/25 11:36:23;;;;;;;2.27;2.07;;;;;;;;;;5024861;28;20679;-72
2022/01/25 11:39:12;;;;;;;2.33;2.13;;;;;;;;;;5025675;28;20234;-72
2022/01/25 11:42:04;;;;;;;2.67;2.20;;;;;;;;;;5029531;28;20217;-72
2022/01/25 11:44:54;;;;;;;2.93;2.40;;;;;;;;;;5028747;28;20215;-72
2022/01/25 11:47:42;;;;;;;2.60;2.40;;;;;;;;;;5026397;28;20289;-72
2022/01/25 11:50:30;;;;;;;2.45;2.25;;;;;;;;;;5023929;28;20218;-69
2022/01/25 11:53:20;;;;;;;3.08;2.78;;;;;;;;;;5026096;28;20366;-70
2022/01/25 11:56:09;;;;;;;2.50;2.40;;;;;;;;;;5029495;28;20313;-69
2022/01/25 11:58:59;;;;;;;2.60;2.40;;;;;;;;;;5024953;28;20260;-70
2022/01/25 12:01:51;;;;;;;2.78;2.55;;;;;;;;;;5024166;28;20695;-70
2022/01/25 12:04:44;;;;;;;2.83;2.63;;;;;;;;;;5026676;28;20583;-70
2022/01/25 12:07:38;;;;;;;3.78;2.50;;;;;;;;;;5030767;28;20213;-70
2022/01/25 12:10:35;;;;;;;2.60;2.40;;;;;;;;;;5030728;28;20208;-70
2022/01/25 12:13:30;;;;;;;3.05;2.70;;;;;;;;;;5027520;28;20201;-70
2022/01/25 12:16:26;;;;;;;2.80;2.60;;;;;;;;;;5030124;28;20347;-70
2022/01/25 12:19:15;;;;;;;2.17;2.08;;;;;;;;;;5025108;28;20255;-70
2022/01/25 12:22:13;;;;;;;2.78;2.17;;;;;;;;;;5026078;28;20209;-70
2022/01/25 12:25:06;;;;;;;2.60;2.40;;;;;;;;;;5029689;28;20218;-69
2022/01/25 12:27:57;;;;;;;2.30;2.20;;;;;;;;;;5028618;28;20771;-70
2022/01/25 12:30:47;;;;;;;2.20;2.10;;;;;;;;;;5025556;28;20243;-70
2022/01/25 12:33:34;;;;;;;2.47;2.30;;;;;;;;;;5027351;28;20294;-70
2022/01/25 12:36:35;;;;;;;2.50;2.30;;;;;;;;;;5024745;28;20211;-69
2022/01/25 12:39:35;;;;;;;2.22;2.10;;;;;;;;;;5028499;28;20670;-70
2022/01/25 12:42:22;;;;;;;2.20;2.00;;;;;;;;;;5024721;28;20243;-70
2022/01/25 12:45:10;;;;;;;4.38;2.17;;;;;;;;;;5030242;28;20258;-70
2022/01/25 12:48:02;;;;;;;1.80;1.70;;;;;;;;;;5026952;28;20207;-71
2022/01/25 12:50:51;;;;;;;2.05;1.95;;;;;;;;;;5026802;28;20252;-71
2022/01/25 12:53:41;;;;;;;1.60;1.50;;;;;;;;;;5029111;28;20340;-71
2022/01/25 12:56:30;;;;;;;2.17;2.03;;;;;;;;;;5028206;28;20218;-70
2022/01/25 12:59:20;;;;;;;2.37;2.17;;;;;;;;;;5028101;28;20279;-69
2022/01/25 13:02:06;;;;;;;1.73;1.63;;;;;;;;;;5029077;28;20287;-71
2022/01/25 13:04:55;;;;;;;1.73;1.63;;;;;;;;;;5026329;28;20214;-70
2022/01/25 13:07:42;;;;;;;1.97;1.60;;;;;;;;;;5028060;28;20299;-70
2022/01/25 13:10:30;;;;;;;1.67;1.57;;;;;;;;;;5027771;28;20290;-69
2022/01/25 13:13:28;;;;;;;1.97;1.83;;;;;;;;;;5030320;28;20211;-70
2022/01/25 13:16:15;;;;;;;1.97;1.77;;;;;;;;;;5028306;28;20207;-71
2022/01/25 13:19:02;;;;;;;1.80;1.70;;;;;;;;;;5025355;28;20303;-70
2022/01/25 13:21:54;;;;;;;2.00;1.90;;;;;;;;;;5029731;28;20211;-70
2022/01/25 13:24:49;;;;;;;2.10;1.90;;;;;;;;;;5028656;28;20264;-70
2022/01/25 13:27:47;;;;;;;1.80;1.70;;;;;;;;;;5034541;28;20312;-71
2022/01/25 13:30:41;;;;;;;1.97;1.70;;;;;;;;;;5030320;28;20285;-70
2022/01/25 13:33:29;;;;;;;1.60;1.50;;;;;;;;;;5031732;28;20297;-71
2022/01/25 13:36:20;;;;;;;1.80;1.70;;;;;;;;;;5032431;28;20205;-71
2022/01/25 13:39:14;;;;;;;2.10;1.60;;;;;;;;;;5033040;28;20243;-71
2022/01/25 13:42:04;;;;;;;2.07;1.60;;;;;;;;;;5032032;28;20208;-71
2022/01/25 13:48:14;;;;;;;2.17;1.97;;;;;;;;;;5032499;28;20252;-73
2022/01/25 13:51:05;;;;;;;2.27;2.10;;;;;;;;;;5030852;28;20239;-70
2022/01/25 13:53:55;;;;;;;2.07;1.87;;;;;;;;;;5030511;28;20717;-71
2022/01/25 13:56:43;;;;;;;1.90;1.80;;;;;;;;;;5031781;28;20266;-71
2022/01/25 13:59:30;;;;;;;2.13;1.93;;;;;;;;;;5031647;28;20651;-71
2022/01/25 14:02:17;;;;;;;1.90;1.80;;;;;;;;;;5031853;28;20556;-70
2022/01/25 14:05:06;;;;;;;2.30;2.10;;;;;;;;;;5031765;28;20280;-71
2022/01/25 14:07:55;;;;;;;1.93;1.80;;;;;;;;;;5032130;28;20693;-71
2022/01/25 14:10:45;;;;;;;2.63;1.80;;;;;;;;;;5026922;28;20665;-71
2022/01/25 14:23:17;;;;;;;1.93;1.80;;;;;;;;;;5032011;28;20574;-70
2022/01/25 14:26:05;;;;;;;2.13;1.93;;;;;;;;;;5031813;28;20198;-71
2022/01/25 14:29:02;;;;;;;4.20;1.80;;;;;;;;;;5030765;28;20305;-70
2022/01/25 14:31:49;;;;;;;1.80;1.70;;;;;;;;;;5031428;28;20216;-70
2022/01/25 14:34:35;;;;;;;2.00;1.83;;;;;;;;;;5030722;28;20213;-70
2022/01/25 14:37:22;;;;;;;2.40;2.10;;;;;;;;;;5030871;28;20255;-71
2022/01/25 14:40:11;;;;;;;2.73;2.30;;;;;;;;;;5032629;28;20323;-71
2022/01/25 14:42:58;;;;;;;1.80;1.70;;;;;;;;;;5031293;28;20211;-71
2022/01/25 14:45:48;;;;;;;2.57;1.60;;;;;;;;;;5031417;28;20295;-70
2022/01/25 14:48:37;;;;;;;2.20;2.10;;;;;;;;;;5030148;28;20212;-71
2022/01/25 14:51:32;;;;;;;2.33;1.83;;;;;;;;;;5030528;28;20201;-71
2022/01/25 14:54:21;;;;;;;2.10;1.90;;;;;;;;;;5031218;28;20324;-71
2022/01/25 14:57:12;;;;;;;1.73;1.60;;;;;;;;;;5031241;28;20300;-71
2022/01/25 15:00:00;;;;;;;2.00;1.87;;;;;;;;;;5030340;28;20230;-73
2022/01/25 15:02:49;;;;;;;2.43;2.03;;;;;;;;;;5031271;28;20336;-74
2022/01/25 15:05:35;;;;;;;1.80;1.70;;;;;;;;;;5029486;28;20213;-73
2022/01/25 15:08:23;;;;;;;1.80;1.70;;;;;;;;;;5030376;28;20949;-73
2022/01/25 15:11:10;;;;;;;1.70;1.60;;;;;;;;;;5031162;28;20241;-72
2022/01/25 15:13:58;;;;;;;4.07;1.50;;;;;;;;;;5031429;28;20597;-73
2022/01/25 15:16:46;;;;;;;1.90;1.80;;;;;;;;;;5029778;28;20219;-73
2022/01/25 15:19:35;;;;;;;1.50;1.40;;;;;;;;;;5031385;28;20877;-73
2022/01/25 15:22:23;;;;;;;1.70;1.60;;;;;;;;;;5030933;28;20682;-73
2022/01/25 15:25:13;;;;;;;1.50;1.40;;;;;;;;;;5029942;28;20293;-72
2022/01/25 15:28:01;;;;;;;3.83;1.90;;;;;;;;;;5031466;28;20613;-73
2022/01/25 15:30:48;;;;;;;1.83;1.73;;;;;;;;;;5029301;28;20216;-73
2022/01/25 15:33:35;;;;;;;2.00;1.83;;;;;;;;;;5029252;28;20216;-73
2022/01/25 15:36:24;;;;;;;1.77;1.67;;;;;;;;;;5030327;28;20726;-73
2022/01/25 15:39:12;;;;;;;1.73;1.63;;;;;;;;;;5030178;28;20229;-72
2022/01/25 15:42:00;;;;;;;1.70;1.60;;;;;;;;;;5029685;28;20203;-73
2022/01/25 15:44:49;;;;;;;2.57;1.80;;;;;;;;;;5029763;28;20215;-73
2022/01/25 15:47:36;;;;;;;2.23;1.97;;;;;;;;;;5030429;28;20208;-73
2022/01/25 15:50:26;;;;;;;1.90;1.80;;;;;;;;;;5025483;28;20246;-73
2022/01/25 15:53:15;;;;;;;2.20;2.00;;;;;;;;;;5030680;28;20202;-73
2022/01/25 15:56:01;;;;;;;2.20;2.00;;;;;;;;;;5029277;28;20257;-73
2022/01/25 15:58:48;;;;;;;2.03;1.67;;;;;;;;;;5026863;28;20274;-70
2022/01/25 16:01:35;;;;;;;1.90;1.80;;;;;;;;;;5030098;28;20205;-71
2022/01/25 16:04:24;;;;;;;2.37;2.00;;;;;;;;;;5030764;28;20244;-70
2022/01/25 16:07:12;;;;;;;2.43;1.70;;;;;;;;;;5030217;28;20241;-71
2022/01/25 16:10:00;;;;;;;2.67;2.17;;;;;;;;;;5028274;28;20257;-70
2022/01/25 16:12:47;;;;;;;2.43;2.23;;;;;;;;;;5029504;28;20527;-70
2022/01/25 16:15:34;;;;;;;2.10;1.97;;;;;;;;;;5029996;28;20222;-71
2022/01/25 16:18:21;;;;;;;2.13;1.93;;;;;;;;;;5027895;28;20278;-71
2022/01/25 16:21:09;;;;;;;2.27;2.10;;;;;;;;;;5030049;28;20624;-70
2022/01/25 16:23:56;;;;;;;1.90;1.80;;;;;;;;;;5028825;28;20317;-71
2022/01/25 16:26:44;;;;;;;2.70;2.00;;;;;;;;;;5031858;28;20248;-73
2022/01/25 16:29:33;;;;;;;1.97;1.87;;;;;;;;;;5029665;28;20252;-73
2022/01/25 16:32:22;;;;;;;2.30;2.10;;;;;;;;;;5027223;28;20208;-71
2022/01/25 16:35:11;;;;;;;2.73;2.37;;;;;;;;;;5029137;28;20805;-71
2022/01/25 16:37:59;;;;;;;2.60;1.90;;;;;;;;;;5028822;28;20625;-71
2022/01/25 16:40:47;;;;;;;2.53;2.20;;;;;;;;;;5030833;28;20235;-71
2022/01/25 16:43:36;;;;;;;2.87;1.90;;;;;;;;;;5030084;28;20215;-71
2022/01/25 16:46:23;;;;;;;2.10;1.97;;;;;;;;;;5029666;28;20354;-73
2022/01/25 16:49:10;;;;;;;2.23;2.03;;;;;;;;;;5027077;28;20600;-73
2022/01/25 16:51:57;;;;;;;2.30;2.20;;;;;;;;;;5030069;28;20673;-73
2022/01/25 16:54:45;;;;;;;2.30;1.97;;;;;;;;;;5028059;28;20707;-71
2022/01/25 16:57:32;;;;;;;1.83;1.73;;;;;;;;;;5030068;28;20214;-71
2022/01/25 17:00:20;;;;;;;2.10;1.90;;;;;;;;;;5026528;28;20286;-70
2022/01/25 17:03:09;;;;;;;1.80;1.70;;;;;;;;;;5028155;28;20359;-72
2022/01/25 17:05:56;;;;;;;2.17;1.97;;;;;;;;;;5028673;28;20223;-73
2022/01/25 17:08:43;;;;;;;2.00;1.90;;;;;;;;;;5025803;28;20292;-73
2022/01/25 17:11:30;;;;;;;1.90;1.80;;;;;;;;;;5029558;28;20295;-73
2022/01/25 17:14:17;;;;;;;2.17;1.80;;;;;;;;;;5027601;28;20615;-71
2022/01/25 17:17:06;;;;;;;2.47;2.03;;;;;;;;;;5029760;28;20718;-71
2022/01/25 17:19:52;;;;;;;2.33;1.87;;;;;;;;;;5028026;28;20236;-70
2022/01/25 17:22:40;;;;;;;1.80;1.60;;;;;;;;;;5028801;28;20295;-71
2022/01/25 17:25:28;;;;;;;1.93;1.80;;;;;;;;;;5032449;28;20290;-70
2022/01/25 17:28:15;;;;;;;2.23;1.97;;;;;;;;;;5026546;28;20213;-71
2022/01/25 17:31:02;;;;;;;2.10;1.80;;;;;;;;;;5027307;28;20208;-71
2022/01/25 17:33:50;;;;;;;2.30;1.97;;;;;;;;;;5027476;28;20306;-70
2022/01/25 17:36:37;;;;;;;2.90;1.87;;;;;;;;;;5028272;28;20326;-71
2022/01/25 17:39:24;;;;;;;2.13;1.83;;;;;;;;;;5029837;28;20314;-71
2022/01/25 17:42:12;;;;;;;2.27;1.97;;;;;;;;;;5026351;28;20566;-70
2022/01/25 17:44:59;;;;;;;2.57;2.03;;;;;;;;;;5027824;28;20634;-70
2022/01/25 17:47:47;;;;;;;2.03;1.83;;;;;;;;;;5028008;28;20299;-70
2022/01/25 17:50:35;;;;;;;2.57;1.87;;;;;;;;;;5021049;28;20286;-71
2022/01/25 17:53:22;;;;;;;1.77;1.67;;;;;;;;;;5027065;28;20216;-70
2022/01/25 17:56:09;;;;;;;4.07;2.03;;;;;;;;;;5026886;28;20295;-69
2022/01/25 17:58:58;;;;;;;2.17;1.90;;;;;;;;;;5027809;28;20582;-71
2022/01/25 18:01:45;;;;;;;2.47;2.10;;;;;;;;;;5026245;28;20230;-73
2022/01/25 18:04:32;;;;;;;2.27;2.10;;;;;;;;;;5028086;28;20215;-73
2022/01/25 18:07:21;;;;;;;2.30;1.97;;;;;;;;;;5028472;28;20613;-73
2022/01/25 18:10:09;;;;;;;1.73;1.63;;;;;;;;;;5030585;28;20212;-73
2022/01/25 18:12:56;;;;;;;2.23;2.00;;;;;;;;;;5032843;28;20219;-73